Time;durP1;ratioP1;P1;durP2;ratioP2;P2;SDS_P1;SDS_P2;PMS_P1;PMS_P2;Temp;Humidity;BMP_temperature;BMP_pressure;BME280_temperature;BME280_humidity;BME280_pressure;Samples;Min_cycle;Max_cycle;Signal;HPM_P1;HPM_P2
2022/05/05 00:01:51;;;;;;;4.90;3.87;;;;;;;19.99;59.17;100506.47;5091689;28;20480;-61
2022/05/05 00:04:19;;;;;;;5.27;3.37;;;;;;;19.98;59.17;100499.09;5087111;28;20205;-61
2022/05/05 00:06:45;;;;;;;5.07;3.33;;;;;;;19.97;59.23;100497.41;5091338;28;20182;-61
2022/05/05 00:09:10;;;;;;;3.33;2.97;;;;;;;19.98;59.49;100492.50;5092668;28;20501;-61
2022/05/05 00:14:31;;;;;;;4.90;3.43;;;;;;;19.95;59.36;100496.97;5089739;28;20243;-61
2022/05/05 00:17:04;;;;;;;4.17;3.23;;;;;;;19.95;59.32;100502.72;5092031;28;20401;-61
2022/05/05 00:19:30;;;;;;;4.50;3.60;;;;;;;19.95;59.35;100493.28;5092539;28;20412;-61
2022/05/05 00:21:56;;;;;;;4.97;3.30;;;;;;;19.94;59.63;100491.63;5092805;28;20542;-61
2022/05/05 00:24:22;;;;;;;5.10;3.47;;;;;;;19.94;59.64;100489.59;5092933;28;20495;-61
2022/05/05 00:26:47;;;;;;;3.97;3.13;;;;;;;19.94;59.48;100491.63;5092850;28;20189;-61
2022/05/05 00:29:13;;;;;;;4.40;3.40;;;;;;;19.93;59.44;100499.41;5092787;28;20772;-61
2022/05/05 00:31:38;;;;;;;4.90;3.30;;;;;;;19.92;59.61;100494.88;5074765;28;20294;-61
2022/05/05 00:34:04;;;;;;;5.37;3.33;;;;;;;19.92;59.71;100492.00;5072200;28;20311;-61
2022/05/05 00:36:29;;;;;;;7.17;4.00;;;;;;;19.92;59.63;100497.75;5071617;28;20167;-61
2022/05/05 00:38:55;;;;;;;5.43;3.00;;;;;;;19.92;59.61;100488.34;5074328;28;20197;-61
2022/05/05 00:41:20;;;;;;;4.17;3.20;;;;;;;19.92;59.77;100492.00;5092212;28;20176;-61
2022/05/05 00:43:46;;;;;;;5.40;3.70;;;;;;;19.90;59.73;100491.56;5092499;28;20170;-61
2022/05/05 00:46:11;;;;;;;5.97;3.63;;;;;;;19.90;59.87;100485.84;5092494;28;20198;-61
2022/05/05 00:48:37;;;;;;;4.63;3.40;;;;;;;19.90;59.64;100482.16;5092139;28;20169;-61
2022/05/05 00:51:02;;;;;;;4.00;3.13;;;;;;;19.90;59.63;100490.75;5092330;28;20251;-61
2022/05/05 00:53:30;;;;;;;4.07;3.07;;;;;;;19.89;59.84;100489.94;5092401;28;20268;-61
2022/05/05 00:55:57;;;;;;;3.70;2.97;;;;;;;19.89;59.60;100495.66;5091784;28;20179;-61
2022/05/05 00:58:23;;;;;;;6.27;2.73;;;;;;;19.88;59.86;100494.00;5074129;28;20408;-61
2022/05/05 01:00:48;;;;;;;7.60;3.50;;;;;;;19.89;59.71;100497.69;5063253;28;20990;-61
2022/05/05 01:03:14;;;;;;;4.07;3.30;;;;;;;19.88;59.78;100490.31;5071641;28;20175;-61
2022/05/05 01:05:39;;;;;;;4.23;2.83;;;;;;;19.88;59.83;100494.00;5052924;28;20198;-61
2022/05/05 01:08:05;;;;;;;4.97;3.47;;;;;;;19.88;59.86;100498.91;5070359;28;20222;-61
2022/05/05 01:10:31;;;;;;;4.53;2.97;;;;;;;19.87;59.92;100495.19;5080380;28;20186;-61
2022/05/05 01:12:56;;;;;;;5.60;3.07;;;;;;;19.87;59.77;100495.19;5090517;28;20170;-61
2022/05/05 01:15:22;;;;;;;4.00;3.40;;;;;;;19.87;59.86;100488.66;5090465;28;20169;-61
2022/05/05 01:17:47;;;;;;;4.00;2.90;;;;;;;19.87;59.83;100497.25;5084750;28;20175;-61
2022/05/05 01:20:17;;;;;;;3.97;2.93;;;;;;;19.85;60.10;100494.78;5070867;28;20194;-61
2022/05/05 01:22:43;;;;;;;3.50;2.87;;;;;;;19.85;60.04;100491.06;5071713;28;20528;-61
2022/05/05 01:28:10;;;;;;;4.00;3.30;;;;;;;19.84;59.89;100490.25;5071726;28;20181;-61
2022/05/05 01:30:36;;;;;;;4.20;3.03;;;;;;;19.84;60.02;100489.41;5080831;28;20783;-61
2022/05/05 01:33:16;;;;;;;4.50;2.80;;;;;;;19.84;60.14;100490.25;5091625;28;20420;-61
2022/05/05 01:35:42;;;;;;;6.00;3.30;;;;;;;19.85;59.99;100494.78;5091633;28;20177;-61
2022/05/05 01:38:08;;;;;;;3.90;3.00;;;;;;;19.84;60.06;100498.84;5091500;28;20420;-61
2022/05/05 01:40:36;;;;;;;3.83;2.63;;;;;;;19.84;60.12;100493.13;5091457;28;20408;-61
2022/05/05 01:43:06;;;;;;;4.07;3.20;;;;;;;19.84;59.99;100495.16;5091751;28;20513;-61
2022/05/05 01:45:31;;;;;;;3.60;2.80;;;;;;;19.83;60.06;100491.47;5090971;28;20829;-61
2022/05/05 01:47:57;;;;;;;3.97;3.23;;;;;;;19.83;60.15;100491.47;5091529;28;20412;-61
2022/05/05 01:50:24;;;;;;;4.07;2.87;;;;;;;19.84;59.98;100492.28;5091578;28;20198;-61
2022/05/05 01:52:50;;;;;;;4.20;2.80;;;;;;;19.83;60.13;100490.63;5091733;28;20261;-61
2022/05/05 01:55:15;;;;;;;4.07;3.33;;;;;;;19.82;59.97;100501.25;5091228;28;20778;-61
2022/05/05 01:57:40;;;;;;;4.53;3.03;;;;;;;19.82;60.17;100498.41;5091508;28;20174;-61
2022/05/05 02:00:06;;;;;;;3.80;3.10;;;;;;;19.82;60.14;100495.53;5091421;28;20524;-61
2022/05/05 02:02:32;;;;;;;3.23;2.10;;;;;;;19.82;60.10;100486.94;5091274;28;20182;-61
2022/05/05 02:04:57;;;;;;;3.43;2.80;;;;;;;19.82;60.09;100501.25;5091427;28;20229;-61
2022/05/05 02:07:23;;;;;;;3.70;2.77;;;;;;;19.81;60.05;100487.34;5091653;28;20701;-61
2022/05/05 02:09:48;;;;;;;4.20;2.57;;;;;;;19.81;60.13;100487.34;5087724;28;20720;-62
2022/05/05 02:12:14;;;;;;;4.73;3.00;;;;;;;19.81;60.14;100488.16;5088209;28;20231;-61
2022/05/05 02:14:39;;;;;;;4.00;2.93;;;;;;;19.81;60.05;100493.88;5089797;28;20185;-61
2022/05/05 02:17:05;;;;;;;3.13;2.33;;;;;;;19.80;60.38;100497.97;5089794;28;20181;-62
2022/05/05 02:19:31;;;;;;;3.80;2.70;;;;;;;19.79;59.92;100496.31;5091270;28;20315;-61
2022/05/05 02:21:56;;;;;;;5.70;3.03;;;;;;;19.81;60.11;100505.34;5091252;28;20174;-61
2022/05/05 02:24:22;;;;;;;3.37;2.70;;;;;;;19.81;60.10;100501.66;5091112;28;20248;-61
2022/05/05 02:26:48;;;;;;;5.17;3.53;;;;;;;19.80;60.08;100506.56;5091318;28;20163;-61
2022/05/05 02:29:14;;;;;;;3.43;2.70;;;;;;;19.80;59.88;100502.84;5091825;28;20209;-61
2022/05/05 02:31:39;;;;;;;4.90;3.23;;;;;;;19.80;60.31;100502.84;5076972;28;20484;-61
2022/05/05 02:34:08;;;;;;;3.83;3.00;;;;;;;19.80;60.07;100497.13;5074823;28;20180;-61
2022/05/05 02:39:20;;;;;;;3.50;2.70;;;;;;;19.79;60.20;100499.19;5074671;28;20420;-61
2022/05/05 02:41:46;;;;;;;4.10;2.90;;;;;;;19.79;60.07;100502.06;5084624;28;20408;-61
2022/05/05 02:44:11;;;;;;;3.27;2.70;;;;;;;19.79;60.14;100502.06;5076693;28;20190;-61
2022/05/05 02:46:37;;;;;;;4.90;2.87;;;;;;;19.79;60.05;100502.06;5094819;28;20190;-61
2022/05/05 02:49:02;;;;;;;3.93;2.67;;;;;;;19.78;60.05;100497.53;5094407;28;20171;-61
2022/05/05 02:51:28;;;;;;;3.43;2.63;;;;;;;19.78;60.19;100494.69;5094336;28;20216;-61
2022/05/05 02:54:55;;;;;;;3.93;3.20;;;;;;;19.78;60.12;100499.56;5094882;28;20267;-61
2022/05/05 02:56:48;;;;;;;3.13;2.80;;;;;;;19.78;61.11;100499.56;5080936;28;20194;-61
2022/05/05 02:59:13;;;;;;;3.63;2.77;;;;;;;19.78;59.98;100502.44;5094418;28;20485;-61
2022/05/05 03:01:39;;;;;;;3.70;2.70;;;;;;;19.78;60.02;100497.53;5076880;28;20317;-61
2022/05/05 03:04:04;;;;;;;3.93;2.90;;;;;;;19.77;60.13;100498.72;5092620;28;20227;-61
2022/05/05 03:06:30;;;;;;;2.70;2.27;;;;;;;19.77;60.10;100510.19;5094285;28;20179;-61
2022/05/05 03:08:55;;;;;;;4.03;2.40;;;;;;;19.77;60.07;100504.44;5094252;28;20214;-61
2022/05/05 03:11:20;;;;;;;3.13;2.60;;;;;;;19.77;60.09;100509.38;5094302;28;20198;-61
2022/05/05 03:13:46;;;;;;;4.20;2.57;;;;;;;19.76;60.07;100497.06;5076391;28;20186;-61
2022/05/05 03:16:11;;;;;;;3.60;2.70;;;;;;;19.76;60.33;100505.66;5054291;28;20183;-61
2022/05/05 03:18:40;;;;;;;4.07;2.67;;;;;;;19.76;60.01;100502.81;5073946;28;20183;-61
2022/05/05 03:21:06;;;;;;;3.87;2.67;;;;;;;19.76;60.03;100502.81;5073969;28;20262;-61
2022/05/05 03:23:31;;;;;;;3.47;2.67;;;;;;;19.76;60.11;100514.25;5074091;28;20418;-61
2022/05/05 03:25:57;;;;;;;2.83;2.23;;;;;;;19.77;60.17;100515.91;5073528;28;20463;-61
2022/05/05 03:28:22;;;;;;;3.13;2.60;;;;;;;19.76;60.08;100511.41;5073979;28;20171;-61
2022/05/05 03:30:49;;;;;;;3.67;2.70;;;;;;;19.76;60.02;100513.47;5061273;28;20226;-61
2022/05/05 03:33:15;;;;;;;3.70;2.90;;;;;;;19.76;60.11;100519.19;5052298;28;20168;-61
2022/05/05 03:35:40;;;;;;;3.57;2.60;;;;;;;19.76;60.15;100525.72;5052162;28;20867;-61
2022/05/05 03:38:06;;;;;;;3.37;2.43;;;;;;;19.75;60.15;100512.63;5052155;28;20546;-61
2022/05/05 03:40:31;;;;;;;3.73;2.60;;;;;;;19.75;60.17;100514.63;5065403;28;20175;-61
2022/05/05 03:42:57;;;;;;;3.00;2.40;;;;;;;19.75;60.08;100518.34;5071440;28;20179;-61
2022/05/05 03:45:23;;;;;;;3.37;2.70;;;;;;;19.75;60.15;100511.78;5072778;28;20202;-61
2022/05/05 03:47:49;;;;;;;3.13;2.40;;;;;;;19.75;60.04;100524.06;5073448;28;20437;-61
2022/05/05 03:50:14;;;;;;;4.30;2.80;;;;;;;19.75;60.22;100526.94;5073051;28;20302;-61
2022/05/05 03:52:40;;;;;;;3.00;2.40;;;;;;;19.74;60.03;100528.16;5066319;28;20187;-61
2022/05/05 03:55:05;;;;;;;2.50;2.10;;;;;;;19.74;60.23;100528.16;5053183;28;20512;-61
2022/05/05 03:57:33;;;;;;;4.27;2.50;;;;;;;19.75;60.21;100528.97;5053213;28;20179;-61
2022/05/05 03:59:59;;;;;;;3.20;2.37;;;;;;;19.74;60.51;100531.03;5053045;28;20195;-61
2022/05/05 04:02:24;;;;;;;3.50;2.73;;;;;;;19.75;60.16;100528.97;5052821;28;20418;-61
2022/05/05 04:04:49;;;;;;;3.90;2.30;;;;;;;19.74;60.23;100528.16;5054222;28;20575;-61
2022/05/05 04:07:15;;;;;;;2.77;2.03;;;;;;;19.73;60.15;100537.97;5073326;28;20178;-61
2022/05/05 04:09:40;;;;;;;2.97;2.13;;;;;;;19.74;60.06;100531.03;5091917;28;20268;-61
2022/05/05 04:12:07;;;;;;;3.40;2.47;;;;;;;19.73;60.22;100528.53;5093014;28;20276;-62
2022/05/05 04:14:33;;;;;;;3.20;2.40;;;;;;;19.72;60.06;100542.03;5093424;28;20581;-62
2022/05/05 04:17:00;;;;;;;4.27;2.30;;;;;;;19.73;60.25;100537.97;5092624;28;20420;-62
2022/05/05 04:19:26;;;;;;;3.50;2.53;;;;;;;19.73;60.23;100540.00;5061962;28;20432;-61
2022/05/05 04:21:51;;;;;;;3.73;2.90;;;;;;;19.71;60.20;100542.44;5075206;28;20413;-61
2022/05/05 04:24:16;;;;;;;3.17;2.50;;;;;;;19.72;60.03;100542.03;5072634;28;20175;-61
2022/05/05 04:26:43;;;;;;;3.30;2.70;;;;;;;19.72;60.29;100550.63;5072598;28;20171;-61
2022/05/05 04:29:09;;;;;;;3.20;2.20;;;;;;;19.71;60.08;100548.97;5054827;28;20697;-61
2022/05/05 04:31:34;;;;;;;4.37;2.77;;;;;;;19.73;60.14;100548.59;5089461;28;20456;-61
2022/05/05 04:34:00;;;;;;;5.10;2.80;;;;;;;19.71;60.25;100551.81;5092848;28;20526;-61
2022/05/05 04:36:26;;;;;;;3.13;2.50;;;;;;;19.71;60.20;100551.81;5092551;28;20194;-61
2022/05/05 04:38:52;;;;;;;3.13;2.30;;;;;;;19.71;60.37;100560.44;5092804;28;20255;-61
2022/05/05 04:41:17;;;;;;;3.50;2.70;;;;;;;19.72;60.30;100561.25;5074703;28;20424;-61
2022/05/05 04:43:42;;;;;;;3.47;2.40;;;;;;;19.72;60.02;100558.41;5092602;28;20181;-61
2022/05/05 04:46:09;;;;;;;2.77;2.20;;;;;;;19.71;60.29;100566.16;5091834;28;20194;-61
2022/05/05 04:48:34;;;;;;;3.30;2.30;;;;;;;19.72;60.07;100570.66;5092733;28;20546;-61
2022/05/05 04:51:00;;;;;;;2.83;2.20;;;;;;;19.72;60.13;100567.00;5092148;28;20459;-61
2022/05/05 04:53:25;;;;;;;3.00;2.20;;;;;;;19.71;60.17;100563.28;5092270;28;20178;-61
2022/05/05 04:55:51;;;;;;;4.63;2.50;;;;;;;19.70;60.27;100573.09;5092233;28;20174;-61
2022/05/05 04:58:16;;;;;;;3.20;2.23;;;;;;;19.69;60.20;100577.19;5092163;28;20177;-61
2022/05/05 05:00:44;;;;;;;3.00;2.33;;;;;;;19.70;59.93;100577.97;5091861;28;20534;-61
2022/05/05 05:03:32;;;;;;;3.40;2.50;;;;;;;19.71;60.08;100580.47;5091802;28;20174;-61
2022/05/05 05:05:54;;;;;;;3.87;2.73;;;;;;;19.70;60.35;100584.56;5091959;28;20919;-61
2022/05/05 05:08:20;;;;;;;3.47;2.50;;;;;;;19.71;60.50;100583.34;5090219;28;20533;-61
2022/05/05 05:10:45;;;;;;;2.73;2.23;;;;;;;19.70;60.26;100583.72;5073474;28;20195;-61
2022/05/05 05:13:11;;;;;;;3.00;2.40;;;;;;;19.70;60.18;100584.56;5071611;28;20649;-61
2022/05/05 05:15:36;;;;;;;3.00;2.03;;;;;;;19.71;60.02;100591.13;5071860;28;20198;-61
2022/05/05 05:18:02;;;;;;;3.43;2.47;;;;;;;19.70;60.05;100590.28;5087849;28;20234;-61
2022/05/05 05:20:27;;;;;;;3.40;2.67;;;;;;;19.70;60.12;100584.56;5092145;28;20178;-61
2022/05/05 05:22:53;;;;;;;3.30;2.40;;;;;;;19.70;60.12;100583.72;5091772;28;20174;-61
2022/05/05 05:25:18;;;;;;;2.60;2.27;;;;;;;19.69;60.14;100591.50;5092069;28;20262;-61
2022/05/05 05:27:44;;;;;;;4.03;2.40;;;;;;;19.70;60.04;100583.72;5091679;28;20170;-61
2022/05/05 05:30:10;;;;;;;2.90;2.30;;;;;;;19.70;60.05;100590.28;5086185;28;20245;-61
2022/05/05 05:32:35;;;;;;;3.00;2.33;;;;;;;19.70;60.04;100601.75;5071788;28;20641;-61
2022/05/05 05:35:01;;;;;;;4.03;2.40;;;;;;;19.70;59.97;100595.19;5071575;28;20176;-61
2022/05/05 05:37:26;;;;;;;3.17;2.37;;;;;;;19.71;60.11;100600.53;5071369;28;20186;-61
2022/05/05 05:39:51;;;;;;;2.80;2.20;;;;;;;19.70;59.97;100601.75;5086751;28;20174;-61
2022/05/05 05:42:17;;;;;;;3.17;2.47;;;;;;;19.70;60.07;100612.38;5091350;28;20174;-61
2022/05/05 05:44:42;;;;;;;2.13;1.70;;;;;;;19.70;60.12;100606.63;5091693;28;20171;-61
2022/05/05 05:47:10;;;;;;;3.67;2.30;;;;;;;19.69;60.22;100611.56;5091207;28;20262;-61
2022/05/05 05:49:36;;;;;;;2.80;2.10;;;;;;;19.70;60.19;100612.38;5089856;28;20601;-61
2022/05/05 05:52:01;;;;;;;3.90;2.23;;;;;;;19.69;59.95;100611.56;5089405;28;20462;-61
2022/05/05 05:54:27;;;;;;;3.77;2.70;;;;;;;19.68;60.04;100609.91;5089794;28;20515;-61
2022/05/05 05:56:52;;;;;;;3.57;2.40;;;;;;;19.69;60.19;100617.28;5082658;28;20178;-61
2022/05/05 05:59:18;;;;;;;3.07;2.23;;;;;;;19.69;60.00;100608.69;5068827;28;21200;-61
2022/05/05 06:04:27;;;;;;;3.10;2.40;;;;;;;19.69;60.02;100607.84;5092387;28;20188;-61
2022/05/05 06:06:53;;;;;;;4.67;2.13;;;;;;;19.69;59.96;100616.44;5095573;28;20790;-61
2022/05/05 06:09:18;;;;;;;3.30;2.40;;;;;;;19.69;59.96;100623.00;5095088;28;20238;-61
2022/05/05 06:11:44;;;;;;;2.47;1.77;;;;;;;19.69;60.27;100620.16;5095359;28;20209;-61
2022/05/05 06:14:10;;;;;;;3.57;2.60;;;;;;;19.69;60.42;100619.31;5095439;28;20186;-61
2022/05/05 06:16:36;;;;;;;3.30;2.30;;;;;;;19.69;60.09;100634.47;5083163;28;20174;-61
2022/05/05 06:19:01;;;;;;;3.50;2.40;;;;;;;19.69;60.00;100634.47;5095329;28;20174;-61
2022/05/05 06:21:26;;;;;;;2.77;2.30;;;;;;;19.69;60.03;100633.63;5095268;28;20167;-61
2022/05/05 06:23:52;;;;;;;2.80;2.27;;;;;;;19.68;60.00;100635.69;5095372;28;20201;-63
2022/05/05 06:26:17;;;;;;;2.80;2.30;;;;;;;19.69;60.12;100643.06;5093572;28;20212;-61
2022/05/05 06:28:43;;;;;;;4.10;3.07;;;;;;;19.71;60.00;100649.22;5076648;28;20662;-61
2022/05/05 06:31:09;;;;;;;7.77;4.00;;;;;;;19.83;60.49;100643.34;5081794;28;20210;-61
2022/05/05 06:33:34;;;;;;;10.00;8.47;;;;;;;20.14;61.89;100645.97;5074673;28;20638;-61
2022/05/05 06:36:00;;;;;;;11.10;9.30;;;;;;;20.22;62.04;100652.66;5087625;28;20170;-61
2022/05/05 06:38:25;;;;;;;14.47;9.17;;;;;;;20.07;61.59;100651.56;5078047;28;20187;-62
2022/05/05 06:40:51;;;;;;;12.37;8.70;;;;;;;20.02;61.63;100657.56;5088012;28;20235;-62
2022/05/05 06:43:18;;;;;;;10.97;8.07;;;;;;;20.03;61.21;100662.13;5092366;28;20299;-62
2022/05/05 06:45:43;;;;;;;12.30;8.47;;;;;;;20.03;60.91;100662.13;5079583;28;20247;-62
2022/05/05 06:48:09;;;;;;;11.37;8.40;;;;;;;20.01;60.70;100658.78;5074467;28;20895;-62
2022/05/05 06:50:34;;;;;;;9.70;7.80;;;;;;;20.04;60.54;100652.31;5081949;28;20293;-61
2022/05/05 06:53:00;;;;;;;10.30;7.30;;;;;;;20.07;60.39;100662.19;5094774;28;20170;-62
2022/05/05 06:55:26;;;;;;;13.40;8.40;;;;;;;20.08;60.05;100664.69;5094953;28;20174;-61
2022/05/05 06:57:51;;;;;;;12.90;7.50;;;;;;;20.09;59.76;100672.09;5078679;28;20183;-62
2022/05/05 07:00:17;;;;;;;9.17;7.30;;;;;;;20.10;58.68;100662.28;5076911;28;20425;-61
2022/05/05 07:02:42;;;;;;;13.40;7.50;;;;;;;20.14;59.80;100671.75;5092259;28;20226;-62
2022/05/05 07:05:23;;;;;;;8.90;7.20;;;;;;;20.15;59.26;100670.53;5093857;28;20213;-62
2022/05/05 07:07:49;;;;;;;9.60;7.77;;;;;;;20.18;58.97;100666.94;5094189;28;20226;-62
2022/05/05 07:12:58;;;;;;;9.23;6.90;;;;;;;20.25;58.78;100671.94;5075330;28;20214;-62
2022/05/05 07:15:24;;;;;;;9.67;7.33;;;;;;;20.31;57.61;100679.03;5073992;28;20889;-61
2022/05/05 07:17:49;;;;;;;12.73;8.23;;;;;;;20.31;57.70;100679.03;5088000;28;20217;-61
2022/05/05 07:20:14;;;;;;;9.17;7.53;;;;;;;20.37;57.74;100692.63;5094266;28;20179;-61
2022/05/05 07:22:40;;;;;;;10.57;7.93;;;;;;;20.33;58.69;100688.06;5079137;28;20198;-61
2022/05/05 07:25:07;;;;;;;10.80;7.60;;;;;;;20.34;58.30;100681.09;5075055;28;20233;-61
2022/05/05 07:27:32;;;;;;;10.23;7.17;;;;;;;20.39;57.25;100693.09;5076293;28;20193;-61
2022/05/05 07:29:58;;;;;;;13.70;8.00;;;;;;;20.35;58.15;100685.63;5074134;28;20437;-61
2022/05/05 07:32:23;;;;;;;9.97;6.33;;;;;;;20.31;58.88;100691.31;5055786;28;20260;-61
2022/05/05 07:34:49;;;;;;;10.27;7.50;;;;;;;20.31;58.84;100697.03;5077554;28;20185;-61
2022/05/05 07:37:14;;;;;;;8.83;6.87;;;;;;;20.28;58.11;100697.81;5089541;28;20183;-61
2022/05/05 07:39:40;;;;;;;10.87;7.67;;;;;;;20.28;58.07;100696.97;5086446;28;20186;-61
2022/05/05 07:42:05;;;;;;;11.53;7.67;;;;;;;20.26;58.30;100693.69;5093673;28;20165;-61
2022/05/05 07:44:31;;;;;;;14.03;7.90;;;;;;;20.20;58.39;100701.75;5092778;28;20182;-61
2022/05/05 07:46:57;;;;;;;8.93;7.57;;;;;;;20.21;58.49;100703.41;5091699;28;20189;-61
2022/05/05 07:49:22;;;;;;;10.00;7.10;;;;;;;20.26;58.04;100700.22;5073508;28;20179;-61
2022/05/05 07:51:51;;;;;;;8.77;6.80;;;;;;;20.27;57.95;100701.88;5073328;28;20670;-61
2022/05/05 07:57:03;;;;;;;8.97;6.70;;;;;;;20.21;58.02;100709.16;5075734;28;20436;-61
2022/05/05 07:59:28;;;;;;;7.10;5.80;;;;;;;20.21;58.08;100714.88;5073479;28;20410;-61
2022/05/05 08:01:54;;;;;;;9.30;6.50;;;;;;;20.21;57.95;100700.53;5089976;28;20485;-61
2022/05/05 08:04:19;;;;;;;8.77;5.77;;;;;;;20.20;58.10;100707.50;5093407;28;20174;-61
2022/05/05 08:06:45;;;;;;;14.40;5.60;;;;;;;20.24;59.08;100711.25;5084173;28;20692;-61
2022/05/05 08:09:11;;;;;;;11.63;6.50;;;;;;;20.16;59.11;100720.94;5074360;28;20710;-61
2022/05/05 08:11:36;;;;;;;10.50;6.20;;;;;;;20.13;59.24;100718.00;5077261;28;20248;-61
2022/05/05 08:14:02;;;;;;;9.80;5.83;;;;;;;20.14;59.03;100713.91;5088909;28;20924;-61
2022/05/05 08:16:28;;;;;;;8.80;4.73;;;;;;;20.16;58.89;100717.25;5089396;28;20178;-61
2022/05/05 08:18:53;;;;;;;8.80;5.40;;;;;;;20.16;59.37;100717.25;5091837;28;20171;-61
2022/05/05 08:21:19;;;;;;;8.97;5.03;;;;;;;20.19;59.30;100717.31;5091792;28;20177;-60
2022/05/05 08:23:44;;;;;;;9.90;5.33;;;;;;;20.15;59.21;100719.28;5088093;28;20174;-61
2022/05/05 08:28:53;;;;;;;14.23;4.87;;;;;;;20.14;59.36;100720.50;5091175;28;20222;-61
2022/05/05 08:31:19;;;;;;;9.37;5.13;;;;;;;20.12;59.19;100716.34;5092601;28;20459;-61
2022/05/05 08:33:44;;;;;;;9.93;5.70;;;;;;;20.11;59.57;100717.56;5091639;28;20625;-61
2022/05/05 08:36:10;;;;;;;9.80;5.27;;;;;;;20.08;59.52;100724.91;5091579;28;20534;-60
2022/05/05 08:38:35;;;;;;;12.10;5.73;;;;;;;20.09;59.60;100729.41;5074170;28;20197;-60
2022/05/05 08:41:01;;;;;;;9.83;4.50;;;;;;;20.08;59.69;100732.66;5092694;28;20509;-61
2022/05/05 08:43:26;;;;;;;9.90;4.70;;;;;;;20.08;59.71;100739.22;5092531;28;20182;-61
2022/05/05 08:45:55;;;;;;;11.63;4.33;;;;;;;20.08;59.47;100738.38;5092588;28;20201;-61
2022/05/05 08:48:20;;;;;;;5.93;4.30;;;;;;;20.06;60.05;100741.59;5092453;28;20151;-61
2022/05/05 08:50:49;;;;;;;7.40;5.00;;;;;;;20.07;59.92;100743.28;5092322;28;20487;-60
2022/05/05 08:53:15;;;;;;;7.40;3.97;;;;;;;20.07;60.03;100743.28;5074016;28;20174;-61
2022/05/05 08:55:43;;;;;;;7.03;4.10;;;;;;;20.06;60.10;100746.53;5092391;28;20420;-61
2022/05/05 08:58:08;;;;;;;5.97;3.97;;;;;;;20.04;60.19;100752.63;5092534;28;20196;-61
2022/05/05 09:00:34;;;;;;;11.83;4.63;;;;;;;20.04;60.14;100758.34;5092253;28;20484;-60
2022/05/05 09:03:00;;;;;;;7.63;4.33;;;;;;;20.04;60.15;100755.50;5092332;28;20192;-61
2022/05/05 09:05:43;;;;;;;6.33;3.83;;;;;;;20.05;60.16;100751.41;5086400;28;20236;-60
2022/05/05 09:08:31;;;;;;;6.60;4.00;;;;;;;20.03;60.37;100753.84;5071759;28;20215;-60
2022/05/05 09:10:58;;;;;;;11.07;4.17;;;;;;;20.03;60.17;100750.97;5072089;28;21229;-61
2022/05/05 09:13:25;;;;;;;8.63;3.90;;;;;;;20.01;60.05;100750.50;5071947;28;20414;-61
2022/05/05 09:15:51;;;;;;;9.20;4.07;;;;;;;20.00;60.15;100751.72;5071432;28;20422;-61
2022/05/05 09:18:17;;;;;;;7.53;4.10;;;;;;;20.02;60.25;100754.22;5089848;28;20440;-61
2022/05/05 09:20:44;;;;;;;7.10;3.90;;;;;;;20.01;60.71;100761.16;5091872;28;20162;-61
2022/05/05 09:23:10;;;;;;;6.17;4.23;;;;;;;19.99;60.29;100755.81;5092270;28;20432;-61
2022/05/05 09:25:48;;;;;;;7.20;4.10;;;;;;;19.99;60.38;100761.53;5057193;28;20938;-60
2022/05/05 09:28:17;;;;;;;6.00;3.43;;;;;;;19.99;60.25;100761.53;5091760;28;20457;-61
2022/05/05 09:30:50;;;;;;;11.10;4.00;;;;;;;19.99;60.41;100758.66;5091356;28;21033;-60
2022/05/05 09:33:34;;;;;;;9.43;4.07;;;;;;;19.99;60.10;100758.66;5091874;28;20412;-61
2022/05/05 09:36:02;;;;;;;5.60;3.33;;;;;;;19.97;60.53;100763.94;5091562;28;20412;-61
2022/05/05 09:38:53;;;;;;;3.70;3.10;;;;;;;19.99;60.29;100769.28;5071154;28;20432;-60
2022/05/05 09:41:23;;;;;;;4.70;3.43;;;;;;;19.96;60.44;100765.16;5071335;28;20402;-60
2022/05/05 09:43:48;;;;;;;5.63;3.13;;;;;;;19.97;60.56;100772.53;5071476;28;20401;-61
2022/05/05 09:46:23;;;;;;;5.43;3.67;;;;;;;19.96;60.46;100770.06;5071419;28;20429;-61
2022/05/05 09:48:51;;;;;;;5.63;3.60;;;;;;;19.97;60.30;100772.53;5071539;28;20182;-60
2022/05/05 09:51:17;;;;;;;5.40;3.40;;;;;;;19.97;60.42;100766.00;5053273;28;20441;-61
2022/05/05 09:59:14;;;;;;;11.47;4.13;;;;;;;19.95;60.56;100783.56;5056419;28;20396;-61
2022/05/05 10:01:40;;;;;;;4.63;3.33;;;;;;;19.94;60.72;100783.94;5089126;28;20469;-61
2022/05/05 10:04:06;;;;;;;5.00;3.40;;;;;;;19.94;60.55;100783.94;5071662;28;20413;-61
2022/05/05 10:06:40;;;;;;;5.40;3.80;;;;;;;19.93;60.62;100791.72;5071143;28;20487;-60
2022/05/05 10:09:06;;;;;;;4.57;3.77;;;;;;;19.93;59.96;100783.13;5073718;28;20707;-61
2022/05/05 10:11:32;;;;;;;4.90;3.40;;;;;;;19.92;60.79;100784.31;5071061;28;20453;-61
2022/05/05 10:14:00;;;;;;;7.07;4.30;;;;;;;19.90;60.62;100783.88;5071408;28;20929;-61
2022/05/05 10:16:25;;;;;;;4.40;3.03;;;;;;;19.92;60.61;100792.09;5073037;28;20666;-61
2022/05/05 10:18:51;;;;;;;6.27;3.80;;;;;;;19.91;60.71;100787.56;5073409;28;20467;-61
2022/05/05 10:21:23;;;;;;;8.30;3.20;;;;;;;19.93;60.46;100788.00;5089457;28;20583;-61
2022/05/05 10:23:58;;;;;;;6.60;3.53;;;;;;;19.92;60.50;100795.75;5053534;28;20650;-61
2022/05/05 10:26:24;;;;;;;3.83;3.13;;;;;;;19.91;60.75;100790.44;5073487;28;20419;-61
2022/05/05 10:28:49;;;;;;;5.97;3.40;;;;;;;19.93;60.66;100796.59;5091081;28;20405;-60
2022/05/05 10:31:30;;;;;;;3.63;3.00;;;;;;;19.92;60.67;100792.09;5072781;28;20202;-60
2022/05/05 10:34:08;;;;;;;5.27;3.20;;;;;;;19.91;60.57;100790.44;5091474;28;20733;-61
2022/05/05 10:36:35;;;;;;;5.40;3.30;;;;;;;19.91;60.86;100793.31;5039460;28;20493;-61
2022/05/05 10:39:19;;;;;;;4.23;3.00;;;;;;;19.90;60.66;100798.19;5091222;28;20412;-61
2022/05/05 10:41:45;;;;;;;4.70;3.60;;;;;;;19.88;60.73;100792.03;5091144;28;20397;-61
2022/05/05 10:44:26;;;;;;;6.13;3.50;;;;;;;19.90;60.54;100792.47;5091075;28;20783;-61
2022/05/05 10:47:02;;;;;;;5.57;3.40;;;;;;;19.90;60.69;100791.63;5073225;28;20195;-61
2022/05/05 10:49:33;;;;;;;6.80;3.67;;;;;;;19.91;60.71;100784.72;5053079;28;20434;-62
2022/05/05 10:52:13;;;;;;;3.80;2.80;;;;;;;19.89;60.80;100790.81;5073465;28;20456;-62
2022/05/05 10:54:45;;;;;;;4.30;3.10;;;;;;;19.90;60.93;100791.63;5074593;28;20440;-62
2022/05/05 10:57:25;;;;;;;5.57;3.53;;;;;;;19.90;60.62;100788.75;5088719;28;20412;-62
2022/05/05 11:00:10;;;;;;;3.23;2.60;;;;;;;19.89;60.88;100789.97;5076063;28;20435;-62
2022/05/05 11:02:39;;;;;;;4.47;3.00;;;;;;;19.89;60.64;100790.81;5094526;28;20404;-61
2022/05/05 11:05:20;;;;;;;6.37;3.93;;;;;;;19.88;60.74;100788.31;5094462;28;20416;-62
2022/05/05 11:07:49;;;;;;;4.00;3.37;;;;;;;19.87;60.58;100778.88;5093102;28;20464;-61
2022/05/05 11:10:36;;;;;;;8.60;3.23;;;;;;;19.87;60.67;100790.34;5077851;28;20417;-61
2022/05/05 11:13:01;;;;;;;3.77;3.00;;;;;;;19.87;60.58;100787.47;5072664;28;20436;-61
2022/05/05 11:21:32;;;;;;;4.30;3.40;;;;;;;19.88;60.81;100797.75;5093604;28;20392;-61
2022/05/05 11:23:59;;;;;;;4.80;3.50;;;;;;;19.84;60.78;100791.13;5094336;28;20393;-61
2022/05/05 11:26:24;;;;;;;3.57;3.00;;;;;;;19.86;60.74;100788.69;5093783;28;20444;-61
2022/05/05 11:28:50;;;;;;;3.30;2.83;;;;;;;19.86;61.13;100794.41;5094209;28;20753;-61
2022/05/05 11:31:33;;;;;;;3.90;2.70;;;;;;;19.87;60.71;100790.34;5093933;28;20205;-61
2022/05/05 11:34:00;;;;;;;4.10;3.00;;;;;;;19.87;60.76;100792.41;5094269;28;20162;-61
2022/05/05 11:36:33;;;;;;;5.00;3.40;;;;;;;19.87;60.87;100789.53;5093904;28;20504;-61
2022/05/05 11:38:59;;;;;;;4.63;3.03;;;;;;;19.87;60.77;100790.34;5075948;28;20651;-61
2022/05/05 11:41:24;;;;;;;4.00;2.83;;;;;;;19.87;60.72;100784.59;5093504;28;20408;-61
2022/05/05 11:46:36;;;;;;;3.60;2.90;;;;;;;19.86;60.76;100794.41;5093893;28;20281;-61
2022/05/05 11:49:01;;;;;;;3.73;2.97;;;;;;;19.87;60.33;100795.25;5094000;28;20412;-61
2022/05/05 11:51:28;;;;;;;4.30;3.00;;;;;;;19.87;60.61;100792.41;5093328;28;20900;-61
2022/05/05 11:54:00;;;;;;;4.30;3.10;;;;;;;19.86;60.82;100794.41;5093961;28;20645;-61
2022/05/05 11:56:29;;;;;;;4.00;2.97;;;;;;;19.85;60.82;100784.16;5093326;28;20419;-61
2022/05/05 12:01:41;;;;;;;3.93;2.60;;;;;;;19.84;60.64;100779.66;5085766;28;20947;-61